Domov               UVHVVR             MKGP            O straneh              
ZDRAVSTVENO VARSTVO RASTLIN
  MREŽA AGROMET. POSTAJ
 ► PROGNOSTIČNA OBVESTILA
AGROMETEOROLOŠKI PODATKI -
ARSO
OBVLADOVANJE TVEGANJ ZARADI
NEUGODNIH VREMENSKIH RAZMER
  ► NARAVNE NESREČE
  ► SUŠA/MOČA
  ► NAMAKANJE
  ► ŽLED (gozdarstvo)
KARTOGRAFSKI PRIKAZI
SPLETNE POVEZAVE
PROJEKTI IN PUBLIKACIJE

AGROMETEOROLOŠKA MREŽA: VREMENSKE POSTAJE IN FENOLOŠKA OPAZOVANJA

Pregled podatkov za lokacijo Dragonja, meteorološka postaja 42389

Pregled senzorjev na lokaciji

ID Ime Zadnja
vrednost
Datum
zadnje
spremembe
Tip
senzorja
2098 Padavine (mm) 0 mm 19.9.2018 04:30 Rain-O-Matic
2096 Relativna vlaga 2 m (% RH) 94,72 % RH 19.9.2018 04:30 50YA
2095 Temperatura 2 m (°C) 15,81 °C 19.9.2018 04:30 50YA

Pregled podatkov zadnjih 24 ur

Zap.
št.
Datum in čas Dragonja
Padavine Relativna
vlaga
2
m
Temperatura
2
m
1 19.9.2018 05:00
2 19.9.2018 04:30
3 19.9.2018 04:00
4 19.9.2018 03:30
5 19.9.2018 03:00
6 19.9.2018 02:30 0 93,4 15,9
7 19.9.2018 02:00 0 92,8 16
8 19.9.2018 01:30 0 92,9 16,1
9 19.9.2018 01:00 0 92,5 16,2
10 19.9.2018 00:30 0 92 16,4
11 19.9.2018 00:00 0 92 16,6
12 18.9.2018 23:30 0 92 16,6
13 18.9.2018 23:00 0 91,5 16,8
14 18.9.2018 22:30 0 90,3 17,1
15 18.9.2018 22:00 0 89,7 17,6
16 18.9.2018 21:30 0 89,1 17,8
17 18.9.2018 21:00 0 87,5 18,3
18 18.9.2018 20:30 0 87,7 18,5
19 18.9.2018 20:00 0 87,6 18,6
20 18.9.2018 19:30 0 86,4 18,9
21 18.9.2018 19:00 0 82 20,1
22 18.9.2018 18:30 0 74,3 21,6
23 18.9.2018 18:00 0 66,9 23,4
24 18.9.2018 17:30 0 56,6 25,6
25 18.9.2018 17:00 0 50,4 27,1
26 18.9.2018 16:30 0 45,8 28,2
27 18.9.2018 16:00 0 46,2 28
28 18.9.2018 15:30 0 47,3 28
29 18.9.2018 15:00 0 46,7 28,6
30 18.9.2018 14:30 0 45,3 28,6
31 18.9.2018 14:00 0 44,2 28,5
32 18.9.2018 13:30 0 45,7 28,1
33 18.9.2018 13:00 0 48,2 28,3
34 18.9.2018 12:30 0 47,5 28,4
35 18.9.2018 12:00 0 52,6 27,9
36 18.9.2018 11:30 0 53,6 27,9
37 18.9.2018 11:00 0 48,1 28,2
38 18.9.2018 10:30 0 47,3 27,7
39 18.9.2018 10:00 0 49,6 26,8
40 18.9.2018 09:30 0 58,7 25,6
41 18.9.2018 09:00 0 69,3 23,4
42 18.9.2018 08:30 0 73,2 21,3
43 18.9.2018 08:00 0 78,7 19,4
44 18.9.2018 07:30 0 86,2 17
45 18.9.2018 07:00 0 90,8 15,7
46 18.9.2018 06:30 0 93,5 14,8
47 18.9.2018 06:00 0 93,2 14,5
48 18.9.2018 05:30 0 93 14,6
© 2011 Ministrstvo za kmetijstvo, gozdarstvo in prehrano. Vse pravice pridržane.